createdAt,value
2022-08-14T00:01:57.034Z,8.30
2022-08-14T00:04:35.906Z,7.30
2022-08-14T00:07:11.691Z,8.60
2022-08-14T00:10:01.375Z,9.30
2022-08-14T00:12:42.599Z,8.10
2022-08-14T00:15:37.686Z,8.50
2022-08-14T00:18:30.726Z,7.70
2022-08-14T00:21:02.845Z,8.70
2022-08-14T00:23:29.905Z,7.00
2022-08-14T00:26:05.550Z,8.10
2022-08-14T00:28:36.079Z,8.00
2022-08-14T00:31:06.696Z,9.20
2022-08-14T00:33:50.572Z,7.30
2022-08-14T00:36:36.387Z,7.20
2022-08-14T00:39:14.942Z,8.90
2022-08-14T00:41:47.501Z,9.60
2022-08-14T00:44:21.447Z,10.60
2022-08-14T00:46:59.913Z,11.70
2022-08-14T00:49:29.980Z,9.20
2022-08-14T00:51:57.282Z,8.60
2022-08-14T00:54:26.642Z,9.50
2022-08-14T00:56:55.543Z,9.50
2022-08-14T00:59:28.473Z,8.70
2022-08-14T01:01:59.914Z,9.70
2022-08-14T01:04:50.922Z,10.70
2022-08-14T01:07:20.609Z,9.20
2022-08-14T01:09:52.115Z,9.50
2022-08-14T01:12:26.790Z,10.10
2022-08-14T01:14:59.278Z,9.90
2022-08-14T01:17:50.463Z,9.20
2022-08-14T01:20:39.258Z,9.90
2022-08-14T01:23:16.477Z,8.50
2022-08-14T01:25:48.862Z,9.50
2022-08-14T01:28:46.729Z,8.50
2022-08-14T01:31:05.938Z,8.80
2022-08-14T01:34:00.262Z,9.20
2022-08-14T01:36:23.134Z,9.10
2022-08-14T01:38:56.794Z,9.30
2022-08-14T01:41:29.987Z,9.90
2022-08-14T01:44:02.457Z,9.20
2022-08-14T01:46:36.656Z,9.40
2022-08-14T01:49:09.062Z,10.10
2022-08-14T01:51:39.323Z,9.20
2022-08-14T01:54:15.495Z,11.00
2022-08-14T01:56:45.575Z,10.10
2022-08-14T01:59:38.148Z,10.20
2022-08-14T02:02:19.928Z,9.20
2022-08-14T02:04:57.034Z,8.30
2022-08-14T02:07:34.525Z,8.50
2022-08-14T02:10:15.790Z,10.70
2022-08-14T02:12:54.239Z,8.20
2022-08-14T02:15:26.158Z,9.10
2022-08-14T02:17:53.328Z,10.40
2022-08-14T02:20:23.413Z,8.50
2022-08-14T02:22:54.935Z,8.70
2022-08-14T02:25:23.127Z,11.60
2022-08-14T02:28:24.169Z,8.80
2022-08-14T02:30:43.170Z,8.70
2022-08-14T02:33:10.695Z,8.00
2022-08-14T02:35:43.509Z,8.00
2022-08-14T02:38:11.539Z,8.70
2022-08-14T02:40:38.331Z,8.60
2022-08-14T02:43:07.727Z,8.10
2022-08-14T02:45:38.894Z,8.60
2022-08-14T02:49:03.986Z,8.30
2022-08-14T02:51:05.009Z,8.00
2022-08-14T02:53:33.359Z,7.90
2022-08-14T02:56:02.933Z,8.70
2022-08-14T02:58:42.320Z,8.20
2022-08-14T03:01:10.710Z,8.20
2022-08-14T03:03:39.504Z,7.10
2022-08-14T03:06:08.959Z,8.50
2022-08-14T03:08:38.737Z,8.10
2022-08-14T03:11:12.567Z,8.10
2022-08-14T03:13:42.164Z,8.20
2022-08-14T03:16:19.871Z,7.30
2022-08-14T03:18:58.276Z,8.10
2022-08-14T03:21:27.274Z,8.00
2022-08-14T03:24:16.463Z,7.70
2022-08-14T03:26:49.800Z,7.60
2022-08-14T03:29:24.512Z,9.20
2022-08-14T03:31:53.228Z,7.30
2022-08-14T03:34:24.662Z,7.80
2022-08-14T03:37:37.590Z,7.60
2022-08-14T03:39:56.166Z,7.90
2022-08-14T03:42:25.311Z,8.00
2022-08-14T03:45:27.001Z,8.70
2022-08-14T03:47:58.493Z,10.30
2022-08-14T03:50:30.701Z,6.70
2022-08-14T03:53:03.066Z,6.90
2022-08-14T03:55:30.853Z,7.60
2022-08-14T03:58:00.353Z,8.40
2022-08-14T04:00:42.920Z,8.20
2022-08-14T04:03:15.395Z,7.50
2022-08-14T04:05:48.622Z,8.50
2022-08-14T04:08:29.370Z,7.70
2022-08-14T04:11:01.000Z,9.20
2022-08-14T04:13:31.949Z,7.50
2022-08-14T04:16:05.369Z,7.90
2022-08-14T04:18:39.868Z,8.70
2022-08-14T04:21:10.471Z,9.90
2022-08-14T04:23:39.655Z,8.30
2022-08-14T04:26:14.642Z,7.40
2022-08-14T04:29:08.806Z,7.30
2022-08-14T04:33:01.565Z,8.50
2022-08-14T04:34:20.754Z,7.70
2022-08-14T04:37:12.797Z,8.50
2022-08-14T04:39:58.766Z,8.40
2022-08-14T04:42:47.400Z,7.20
2022-08-14T04:45:24.302Z,7.20
2022-08-14T04:48:12.482Z,7.30
2022-08-14T04:50:54.178Z,7.60
2022-08-14T04:53:26.547Z,8.00
2022-08-14T04:56:05.775Z,6.80
2022-08-14T04:58:37.839Z,7.20
2022-08-14T05:01:12.879Z,6.50
2022-08-14T05:03:44.659Z,6.30
2022-08-14T05:06:35.080Z,7.00
2022-08-14T05:09:00.680Z,6.90
2022-08-14T05:11:28.026Z,7.40
2022-08-14T05:14:17.168Z,7.70
2022-08-14T05:16:46.525Z,6.80
2022-08-14T05:19:17.823Z,7.60
2022-08-14T05:21:58.099Z,6.80
2022-08-14T05:24:28.127Z,6.60
2022-08-14T05:26:55.578Z,7.20
2022-08-14T05:29:22.521Z,6.60
2022-08-14T05:31:49.176Z,6.50
2022-08-14T05:34:28.858Z,6.60
2022-08-14T05:37:01.929Z,6.50
2022-08-14T05:39:31.145Z,7.00
2022-08-14T05:41:59.027Z,7.40
2022-08-14T05:44:30.903Z,8.20
2022-08-14T05:46:59.136Z,8.20
2022-08-14T05:49:33.088Z,6.40
2022-08-14T05:52:03.999Z,6.90
2022-08-14T05:54:36.832Z,6.40
2022-08-14T05:57:06.031Z,8.70
2022-08-14T05:59:36.770Z,7.40
2022-08-14T06:02:11.019Z,7.40
2022-08-14T06:04:40.213Z,5.80
2022-08-14T06:07:07.130Z,6.20
2022-08-14T06:09:40.518Z,5.90
2022-08-14T06:12:11.986Z,6.40
2022-08-14T06:14:39.318Z,5.80
2022-08-14T06:17:07.027Z,6.20
2022-08-14T06:19:34.122Z,5.70
2022-08-14T06:22:01.717Z,6.50
2022-08-14T06:24:30.610Z,6.40
2022-08-14T06:27:04.527Z,5.90
2022-08-14T06:29:35.049Z,5.80
2022-08-14T06:32:38.435Z,6.40
2022-08-14T06:35:04.521Z,6.20
2022-08-14T06:37:45.369Z,5.70
2022-08-14T06:40:26.762Z,5.00
2022-08-14T06:43:03.725Z,5.10
2022-08-14T06:45:36.336Z,6.00
2022-08-14T06:48:06.164Z,5.60
2022-08-14T06:50:33.775Z,5.70
2022-08-14T06:53:01.120Z,5.70
2022-08-14T06:55:29.304Z,7.00
2022-08-14T06:57:57.872Z,5.70
2022-08-14T07:00:30.414Z,5.60
2022-08-14T07:03:19.287Z,5.30
2022-08-14T07:05:58.293Z,6.60
2022-08-14T07:08:31.539Z,6.30
2022-08-14T07:11:01.418Z,5.50
2022-08-14T07:13:30.761Z,5.90
2022-08-14T07:16:00.550Z,5.40
2022-08-14T07:18:30.933Z,5.40
2022-08-14T07:21:02.767Z,5.60
2022-08-14T07:23:31.158Z,6.00
2022-08-14T07:26:00.309Z,5.90
2022-08-14T07:28:35.942Z,5.90
2022-08-14T07:31:12.345Z,6.10
2022-08-14T07:33:49.982Z,7.00
2022-08-14T07:36:30.186Z,6.90
2022-08-14T07:38:59.754Z,7.70
2022-08-14T07:41:33.517Z,5.70
2022-08-14T07:44:32.125Z,6.80
2022-08-14T07:46:49.705Z,6.50
2022-08-14T07:49:18.832Z,6.20
2022-08-14T07:51:49.608Z,6.00
2022-08-14T07:54:23.521Z,6.00
2022-08-14T07:57:06.382Z,6.70
2022-08-14T07:59:40.900Z,6.50
2022-08-14T08:02:17.348Z,5.80
2022-08-14T08:04:55.337Z,5.70
2022-08-14T08:07:31.998Z,5.70
2022-08-14T08:10:46.182Z,5.30
2022-08-14T08:13:18.400Z,6.30
2022-08-14T08:15:56.704Z,5.70
2022-08-14T08:18:29.599Z,6.30
2022-08-14T08:20:59.777Z,7.30
2022-08-14T08:23:39.837Z,5.70
2022-08-14T08:26:10.352Z,6.30
2022-08-14T08:28:37.105Z,6.00
2022-08-14T08:31:06.777Z,6.20
2022-08-14T08:33:37.689Z,7.00
2022-08-14T08:36:13.043Z,7.60
2022-08-14T08:39:18.456Z,8.20
2022-08-14T08:41:49.461Z,7.70
2022-08-14T08:44:31.563Z,8.00
2022-08-14T08:47:06.151Z,8.40
2022-08-14T08:49:52.725Z,8.10
2022-08-14T08:52:31.347Z,8.40
2022-08-14T08:55:01.055Z,7.80
2022-08-14T08:57:36.930Z,8.90
2022-08-14T09:00:24.226Z,8.90
2022-08-14T09:03:10.398Z,9.20
2022-08-14T09:05:49.557Z,9.70
2022-08-14T09:08:31.600Z,9.50
2022-08-14T09:11:19.289Z,9.30
2022-08-14T09:13:53.296Z,8.60
2022-08-14T09:16:25.971Z,9.50
2022-08-14T09:18:54.631Z,11.30
2022-08-14T09:21:24.067Z,10.30
2022-08-14T09:24:29.225Z,12.70
2022-08-14T09:26:49.380Z,11.70
2022-08-14T09:29:19.905Z,12.40
2022-08-14T09:31:57.680Z,12.80
2022-08-14T09:35:16.160Z,13.60
2022-08-14T09:37:55.494Z,12.60
2022-08-14T09:40:55.290Z,14.90
2022-08-14T09:43:44.786Z,13.40
2022-08-14T09:46:17.097Z,12.30
2022-08-14T09:49:06.097Z,11.10
2022-08-14T09:51:44.862Z,10.20
2022-08-14T09:54:23.789Z,9.40
2022-08-14T09:56:56.553Z,8.70
2022-08-14T09:59:26.543Z,7.20
2022-08-14T10:01:55.402Z,6.80
2022-08-14T10:04:36.047Z,7.00
2022-08-14T10:07:08.560Z,5.80
2022-08-14T10:09:57.538Z,5.40
2022-08-14T10:12:28.992Z,5.80
2022-08-14T10:14:56.211Z,6.70
2022-08-14T10:17:27.654Z,6.50
2022-08-14T10:19:59.930Z,6.30
2022-08-14T10:23:14.763Z,5.30
2022-08-14T10:25:20.051Z,5.70
2022-08-14T10:27:58.003Z,6.30
2022-08-14T10:30:36.696Z,5.50
2022-08-14T10:33:03.801Z,5.50
2022-08-14T10:35:48.225Z,6.00
2022-08-14T10:38:32.399Z,5.50
2022-08-14T10:41:17.573Z,6.30
2022-08-14T10:44:06.467Z,6.80
2022-08-14T10:47:40.918Z,6.10
2022-08-14T10:49:34.681Z,6.20
2022-08-14T10:52:07.229Z,5.90
2022-08-14T10:54:47.360Z,5.30
2022-08-14T10:57:22.428Z,5.90
2022-08-14T11:00:00.387Z,6.20
2022-08-14T11:02:44.601Z,5.40
2022-08-14T11:05:19.271Z,5.90
2022-08-14T11:08:02.363Z,5.40
2022-08-14T11:10:55.871Z,5.60
2022-08-14T11:13:28.805Z,6.40
2022-08-14T11:16:01.351Z,5.00
2022-08-14T11:18:36.044Z,5.30
2022-08-14T11:21:08.289Z,5.60
2022-08-14T11:23:39.870Z,5.90
2022-08-14T11:26:10.346Z,5.80
2022-08-14T11:28:48.169Z,5.60
2022-08-14T11:31:22.056Z,5.80
2022-08-14T11:34:00.157Z,5.10
2022-08-14T11:37:02.047Z,5.50
2022-08-14T11:39:34.637Z,5.80
2022-08-14T11:42:57.144Z,5.90
2022-08-14T11:45:11.111Z,7.10
2022-08-14T11:48:12.881Z,5.30
2022-08-14T11:50:37.719Z,5.30
2022-08-14T11:53:07.982Z,5.80
2022-08-14T11:55:39.339Z,6.00
2022-08-14T11:58:12.052Z,6.70
2022-08-14T12:00:54.471Z,5.90
2022-08-14T12:03:37.476Z,5.30
2022-08-14T12:06:28.619Z,5.40
2022-08-14T12:09:08.652Z,6.00
2022-08-14T12:11:47.440Z,6.10
2022-08-14T12:14:30.365Z,5.70
2022-08-14T12:17:12.331Z,6.50
2022-08-14T12:20:05.535Z,4.90
2022-08-14T12:22:42.399Z,6.10
2022-08-14T12:25:20.507Z,5.10
2022-08-14T12:27:52.671Z,5.20
2022-08-14T12:30:26.834Z,6.30
2022-08-14T12:32:59.033Z,5.70
2022-08-14T12:35:44.326Z,5.40
2022-08-14T12:38:19.375Z,5.60
2022-08-14T12:40:51.840Z,5.10
2022-08-14T12:43:21.582Z,5.20
2022-08-14T12:45:57.087Z,5.70
2022-08-14T12:48:32.395Z,5.40
2022-08-14T12:50:59.992Z,5.30
2022-08-14T12:53:39.871Z,5.30
2022-08-14T12:56:22.440Z,5.60
2022-08-14T12:58:58.239Z,5.10
2022-08-14T13:01:59.589Z,5.90
2022-08-14T13:04:21.724Z,5.10
2022-08-14T13:06:51.500Z,5.00
2022-08-14T13:09:20.537Z,5.90
2022-08-14T13:11:59.236Z,5.20
2022-08-14T13:14:44.038Z,5.40
2022-08-14T13:17:12.103Z,5.50
2022-08-14T13:19:40.848Z,5.40
2022-08-14T13:22:09.746Z,6.20
2022-08-14T13:24:39.934Z,5.70
2022-08-14T13:27:09.987Z,6.30
2022-08-14T13:29:46.886Z,5.90
2022-08-14T13:32:15.252Z,5.90
2022-08-14T13:34:46.078Z,8.30
2022-08-14T13:37:17.070Z,5.90
2022-08-14T13:39:56.739Z,5.80
2022-08-14T13:42:30.458Z,5.90
2022-08-14T13:45:02.305Z,5.70
2022-08-14T13:47:33.409Z,6.50
2022-08-14T13:50:04.768Z,5.90
2022-08-14T13:52:53.306Z,5.80
2022-08-14T13:55:28.609Z,5.80
2022-08-14T13:58:04.519Z,5.90
2022-08-14T14:00:52.787Z,5.50
2022-08-14T14:03:23.307Z,5.50
2022-08-14T14:05:54.265Z,6.00
2022-08-14T14:08:46.092Z,5.20
2022-08-14T14:11:15.684Z,5.50
2022-08-14T14:13:46.021Z,6.40
2022-08-14T14:16:22.072Z,5.80
2022-08-14T14:19:06.026Z,6.50
2022-08-14T14:21:34.634Z,7.10
2022-08-14T14:24:01.851Z,5.40
2022-08-14T14:26:33.181Z,5.70
2022-08-14T14:29:06.290Z,5.70
2022-08-14T14:31:36.574Z,5.70
2022-08-14T14:34:07.319Z,6.60
2022-08-14T14:36:44.407Z,6.20
2022-08-14T14:39:20.122Z,5.90
2022-08-14T14:41:55.999Z,5.30
2022-08-14T14:44:30.171Z,5.50
2022-08-14T14:46:58.239Z,5.70
2022-08-14T14:49:41.733Z,5.30
2022-08-14T14:52:26.696Z,5.20
2022-08-14T14:54:58.431Z,5.30
2022-08-14T14:57:34.822Z,5.90
2022-08-14T15:00:12.534Z,6.30
2022-08-14T15:03:00.156Z,5.60
2022-08-14T15:05:28.354Z,6.20
2022-08-14T15:07:55.725Z,6.60
2022-08-14T15:10:27.393Z,5.70
2022-08-14T15:13:04.428Z,6.40
2022-08-14T15:15:37.357Z,5.00
2022-08-14T15:18:35.856Z,5.90
2022-08-14T15:20:59.542Z,6.00
2022-08-14T15:23:32.451Z,6.30
2022-08-14T15:26:13.063Z,5.90
2022-08-14T15:28:50.360Z,6.00
2022-08-14T15:31:29.605Z,5.80
2022-08-14T15:34:43.155Z,6.50
2022-08-14T15:37:12.728Z,5.70
2022-08-14T15:39:41.381Z,5.70
2022-08-14T15:42:15.769Z,6.60
2022-08-14T15:44:57.030Z,6.20
2022-08-14T15:47:27.791Z,6.80
2022-08-14T15:49:59.588Z,6.60
2022-08-14T15:52:35.441Z,5.70
2022-08-14T15:55:09.313Z,5.80
2022-08-14T15:57:37.075Z,6.10
2022-08-14T16:00:40.784Z,6.70
2022-08-14T16:03:15.883Z,6.80
2022-08-14T16:05:46.158Z,5.90
2022-08-14T16:08:29.046Z,5.30
2022-08-14T16:11:05.858Z,6.00
2022-08-14T16:13:44.586Z,6.40
2022-08-14T16:16:49.339Z,8.00
2022-08-14T16:19:09.667Z,7.40
2022-08-14T16:21:40.449Z,6.60
2022-08-14T16:24:26.991Z,5.90
2022-08-14T16:27:00.733Z,5.90
2022-08-14T16:29:31.327Z,6.40
2022-08-14T16:32:01.804Z,6.10
2022-08-14T16:34:50.986Z,6.20
2022-08-14T16:37:23.291Z,5.80
2022-08-14T16:39:59.641Z,5.60
2022-08-14T16:42:40.012Z,6.50
2022-08-14T16:45:18.525Z,6.40
2022-08-14T16:47:47.825Z,6.30
2022-08-14T16:50:42.938Z,6.40
2022-08-14T16:53:07.311Z,7.10
2022-08-14T16:55:53.133Z,6.20
2022-08-14T16:58:29.844Z,7.10
2022-08-14T17:01:22.438Z,6.30
2022-08-14T17:04:04.648Z,6.80
2022-08-14T17:06:49.714Z,6.70
2022-08-14T17:09:44.746Z,6.10
2022-08-14T17:12:34.108Z,6.10
2022-08-14T17:15:03.845Z,6.30
2022-08-14T17:17:40.166Z,5.60
2022-08-14T17:20:54.618Z,6.20
2022-08-14T17:23:15.231Z,6.10
2022-08-14T17:25:50.807Z,6.40
2022-08-14T17:28:51.888Z,7.50
2022-08-14T17:31:08.891Z,5.70
2022-08-14T17:33:44.373Z,6.30
2022-08-14T17:36:23.934Z,6.80
2022-08-14T17:39:15.374Z,6.60
2022-08-14T17:42:02.716Z,7.30
2022-08-14T17:44:45.410Z,6.60
2022-08-14T17:47:18.382Z,6.40
2022-08-14T17:49:51.833Z,6.70
2022-08-14T17:52:34.753Z,7.40
2022-08-14T17:56:00.393Z,6.40
2022-08-14T17:57:58.905Z,6.40
2022-08-14T18:00:26.336Z,6.50
2022-08-14T18:02:54.724Z,6.60
2022-08-14T18:06:07.604Z,6.50
2022-08-14T18:08:34.232Z,6.60
2022-08-14T18:11:00.360Z,6.50
2022-08-14T18:13:50.052Z,6.70
2022-08-14T18:16:20.703Z,9.10
2022-08-14T18:18:51.635Z,6.10
2022-08-14T18:21:39.754Z,6.30
2022-08-14T18:24:20.037Z,6.90
2022-08-14T18:27:01.829Z,6.70
2022-08-14T18:29:32.186Z,6.90
2022-08-14T18:32:00.005Z,7.10
2022-08-14T18:34:37.933Z,8.00
2022-08-14T18:37:21.226Z,7.20
2022-08-14T18:40:03.420Z,7.60
2022-08-14T18:42:34.941Z,7.70
2022-08-14T18:45:01.938Z,7.40
2022-08-14T18:48:03.304Z,7.10
2022-08-14T18:50:27.171Z,6.70
2022-08-14T18:53:11.082Z,6.90
2022-08-14T18:55:52.911Z,7.30
2022-08-14T18:58:31.230Z,7.40
2022-08-14T19:01:04.429Z,7.80
2022-08-14T19:03:37.158Z,7.20
2022-08-14T19:06:09.608Z,7.20
2022-08-14T19:08:42.857Z,8.20
2022-08-14T19:11:34.379Z,8.80
2022-08-14T19:14:04.785Z,7.90
2022-08-14T19:16:35.566Z,7.50
2022-08-14T19:19:08.783Z,7.10
2022-08-14T19:21:55.455Z,7.80
2022-08-14T19:24:44.286Z,8.30
2022-08-14T19:27:26.404Z,6.40
2022-08-14T19:30:19.647Z,7.00
2022-08-14T19:32:50.764Z,7.60
2022-08-14T19:35:24.843Z,6.70
2022-08-14T19:38:32.920Z,8.20
2022-08-14T19:41:01.351Z,8.40
2022-08-14T19:43:56.046Z,8.30
2022-08-14T19:46:38.055Z,8.40
2022-08-14T19:49:03.892Z,8.50
2022-08-14T19:51:32.573Z,9.40
2022-08-14T19:54:13.549Z,8.40
2022-08-14T19:56:45.395Z,8.40
2022-08-14T19:59:19.186Z,8.20
2022-08-14T20:01:52.152Z,8.50
2022-08-14T20:04:47.517Z,7.80
2022-08-14T20:07:59.675Z,9.50
2022-08-14T20:11:11.147Z,8.00
2022-08-14T20:13:32.902Z,9.50
2022-08-14T20:16:12.351Z,8.30
2022-08-14T20:18:51.731Z,9.00
2022-08-14T20:21:21.665Z,8.50
2022-08-14T20:23:49.450Z,8.30
2022-08-14T20:26:30.701Z,8.60
2022-08-14T20:29:05.342Z,9.50
2022-08-14T20:31:37.032Z,8.50
2022-08-14T20:34:24.337Z,8.00
2022-08-14T20:37:04.630Z,8.30
2022-08-14T20:39:54.541Z,8.60
2022-08-14T20:42:43.707Z,8.50
2022-08-14T20:45:23.456Z,8.70
2022-08-14T20:48:01.097Z,8.80
2022-08-14T20:50:30.306Z,7.60
2022-08-14T20:53:00.119Z,7.30
2022-08-14T20:55:41.600Z,8.20
2022-08-14T20:58:44.330Z,9.00
2022-08-14T21:01:33.724Z,10.20
2022-08-14T21:04:05.110Z,7.20
2022-08-14T21:07:23.267Z,9.10
2022-08-14T21:10:03.356Z,8.50
2022-08-14T21:12:33.517Z,10.10
2022-08-14T21:15:11.177Z,8.90
2022-08-14T21:17:47.250Z,9.20
2022-08-14T21:20:26.247Z,8.80
2022-08-14T21:23:00.369Z,8.40
2022-08-14T21:25:31.354Z,10.40
2022-08-14T21:28:05.943Z,9.70
2022-08-14T21:30:46.403Z,8.70
2022-08-14T21:33:14.058Z,10.70
2022-08-14T21:35:46.806Z,9.10
2022-08-14T21:38:17.887Z,9.90
2022-08-14T21:40:51.185Z,10.90
2022-08-14T21:43:26.967Z,8.20
2022-08-14T21:45:57.579Z,8.30
2022-08-14T21:48:29.876Z,9.50
2022-08-14T21:51:55.173Z,10.00
2022-08-14T21:53:58.018Z,9.00
2022-08-14T21:56:37.295Z,9.80
2022-08-14T21:59:09.448Z,9.20
2022-08-14T22:02:00.195Z,10.60
2022-08-14T22:04:33.331Z,10.10
2022-08-14T22:07:16.734Z,9.80
2022-08-14T22:09:54.975Z,10.40
2022-08-14T22:12:45.485Z,10.20
2022-08-14T22:15:16.876Z,11.00
2022-08-14T22:17:44.728Z,9.30
2022-08-14T22:20:20.565Z,9.50
2022-08-14T22:22:47.659Z,9.10
2022-08-14T22:25:16.200Z,8.40
2022-08-14T22:27:55.604Z,9.70
2022-08-14T22:30:24.153Z,8.90
2022-08-14T22:32:57.806Z,8.60
2022-08-14T22:35:26.671Z,9.80
2022-08-14T22:38:35.986Z,11.20
2022-08-14T22:40:58.034Z,10.80
2022-08-14T22:43:32.847Z,9.80
2022-08-14T22:46:14.304Z,9.10
2022-08-14T22:48:44.478Z,8.60
2022-08-14T22:51:15.939Z,10.80
2022-08-14T22:53:48.416Z,8.10
2022-08-14T22:56:21.327Z,8.70
2022-08-14T22:58:53.791Z,7.30
2022-08-14T23:01:56.273Z,7.80
2022-08-14T23:04:34.950Z,10.00
2022-08-14T23:07:22.764Z,7.60
2022-08-14T23:09:56.400Z,7.60
2022-08-14T23:12:30.375Z,7.40
2022-08-14T23:15:00.595Z,7.80
2022-08-14T23:17:39.119Z,6.80
2022-08-14T23:20:18.999Z,8.20
2022-08-14T23:22:51.336Z,8.10
2022-08-14T23:25:58.880Z,7.70
2022-08-14T23:28:33.431Z,9.00
2022-08-14T23:31:01.470Z,9.00
2022-08-14T23:33:28.747Z,8.40
2022-08-14T23:35:58.764Z,7.20
2022-08-14T23:38:30.484Z,7.10
2022-08-14T23:41:00.811Z,8.10
2022-08-14T23:43:31.008Z,7.40
2022-08-14T23:45:59.247Z,8.50
2022-08-14T23:48:28.172Z,8.60
2022-08-14T23:50:56.318Z,8.60
2022-08-14T23:53:47.879Z,7.90
2022-08-14T23:56:32.298Z,7.10
2022-08-14T23:59:01.881Z,11.30
